Time;durP1;ratioP1;P1;durP2;ratioP2;P2;SDS_P1;SDS_P2;PMS_P1;PMS_P2;Temp;Humidity;BMP_temperature;BMP_pressure;BME280_temperature;BME280_humidity;BME280_pressure;Samples;Min_cycle;Max_cycle;Signal;HPM_P1;HPM_P2
2022/11/22 00:01:33;;;;;;;25.00;16.63;;;;;;;;;;5017643;28;20028;-66
2022/11/22 00:03:59;;;;;;;29.65;18.42;;;;;;;;;;5012206;28;20404;-66
2022/11/22 00:06:25;;;;;;;31.63;18.20;;;;;;;;;;5012455;28;20030;-69
2022/11/22 00:08:51;;;;;;;25.95;17.80;;;;;;;;;;5012336;28;20041;-67
2022/11/22 00:11:17;;;;;;;28.55;19.70;;;;;;;;;;5019441;28;20048;-65
2022/11/22 00:13:43;;;;;;;29.67;17.75;;;;;;;;;;5019793;28;20029;-67
2022/11/22 00:16:09;;;;;;;25.52;16.88;;;;;;;;;;5013824;28;20060;-68
2022/11/22 00:18:35;;;;;;;27.25;17.77;;;;;;;;;;5013460;28;20080;-67
2022/11/22 00:21:06;;;;;;;26.67;17.33;;;;;;;;;;5012484;28;20077;-67
2022/11/22 00:23:32;;;;;;;25.85;16.77;;;;;;;;;;5024603;28;20029;-68
2022/11/22 00:25:58;;;;;;;31.40;17.40;;;;;;;;;;5025429;28;20022;-67
2022/11/22 00:28:24;;;;;;;24.50;16.70;;;;;;;;;;5011044;28;20033;-67
2022/11/22 00:30:50;;;;;;;24.70;17.25;;;;;;;;;;5012066;28;20030;-68
2022/11/22 00:33:16;;;;;;;26.73;16.40;;;;;;;;;;5011803;28;20086;-67
2022/11/22 00:35:44;;;;;;;24.52;16.42;;;;;;;;;;5012173;28;20026;-66
2022/11/22 00:38:10;;;;;;;26.35;16.52;;;;;;;;;;5012110;28;20445;-67
2022/11/22 00:40:36;;;;;;;26.48;16.67;;;;;;;;;;5013551;28;20030;-67
2022/11/22 00:43:02;;;;;;;25.83;16.60;;;;;;;;;;5010312;28;20025;-67
2022/11/22 00:45:28;;;;;;;25.00;16.25;;;;;;;;;;5011794;28;20022;-68
2022/11/22 00:47:54;;;;;;;23.67;16.60;;;;;;;;;;5011786;28;20501;-68
2022/11/22 00:50:20;;;;;;;26.27;15.95;;;;;;;;;;5011780;28;20033;-67
2022/11/22 00:52:46;;;;;;;22.45;15.25;;;;;;;;;;5010455;28;20482;-68
2022/11/22 00:55:12;;;;;;;23.70;14.93;;;;;;;;;;5012551;28;20025;-67
2022/11/22 00:57:38;;;;;;;26.70;16.63;;;;;;;;;;5025952;28;20462;-68
2022/11/22 01:00:05;;;;;;;24.85;15.52;;;;;;;;;;5031119;28;20029;-68
2022/11/22 01:02:31;;;;;;;25.02;15.98;;;;;;;;;;5031400;28;20024;-67
2022/11/22 01:04:57;;;;;;;23.45;15.23;;;;;;;;;;5031060;28;20033;-67
2022/11/22 01:07:23;;;;;;;24.13;14.85;;;;;;;;;;5030117;28;20394;-67
2022/11/22 01:09:49;;;;;;;23.80;15.82;;;;;;;;;;5031171;28;20048;-67
2022/11/22 01:12:15;;;;;;;22.92;15.25;;;;;;;;;;5031235;28;20029;-67
2022/11/22 01:14:41;;;;;;;23.42;15.05;;;;;;;;;;5031238;28;20045;-68
2022/11/22 01:17:07;;;;;;;23.50;15.27;;;;;;;;;;5031166;28;20098;-67
2022/11/22 01:19:33;;;;;;;23.10;15.50;;;;;;;;;;5030882;28;20516;-68
2022/11/22 01:21:59;;;;;;;22.80;15.48;;;;;;;;;;5031320;28;20021;-67
2022/11/22 01:24:25;;;;;;;23.52;14.38;;;;;;;;;;5030942;28;20056;-68
2022/11/22 01:26:51;;;;;;;23.95;13.85;;;;;;;;;;5028963;28;20029;-67
2022/11/22 01:29:17;;;;;;;21.88;13.82;;;;;;;;;;5030920;28;20462;-68
2022/11/22 01:31:43;;;;;;;20.75;13.70;;;;;;;;;;5030789;28;20148;-68
2022/11/22 01:34:09;;;;;;;23.98;14.40;;;;;;;;;;5030624;28;20025;-68
2022/11/22 01:36:35;;;;;;;22.92;14.55;;;;;;;;;;5031299;28;20014;-68
2022/11/22 01:39:01;;;;;;;23.70;14.30;;;;;;;;;;5029616;28;20108;-68
2022/11/22 01:41:27;;;;;;;22.30;13.65;;;;;;;;;;5030466;28;20465;-67
2022/11/22 01:43:53;;;;;;;26.55;13.75;;;;;;;;;;5030451;28;20156;-68
2022/11/22 01:46:27;;;;;;;21.10;12.88;;;;;;;;;;5029664;28;20048;-68
2022/11/22 01:48:56;;;;;;;20.92;13.88;;;;;;;;;;5030678;28;20025;-67
2022/11/22 01:51:31;;;;;;;19.83;13.20;;;;;;;;;;5030720;28;20057;-69
2022/11/22 01:54:00;;;;;;;24.63;13.77;;;;;;;;;;5029395;28;20205;-66
2022/11/22 01:56:27;;;;;;;20.65;13.27;;;;;;;;;;5031397;28;20057;-68
2022/11/22 01:58:56;;;;;;;22.52;13.38;;;;;;;;;;5031317;28;20036;-67
2022/11/22 02:01:22;;;;;;;19.98;13.23;;;;;;;;;;5031087;28;20032;-68
2022/11/22 02:03:50;;;;;;;22.75;13.40;;;;;;;;;;5030279;28;20025;-70
2022/11/22 02:06:16;;;;;;;22.50;13.30;;;;;;;;;;5029274;28;20370;-66
2022/11/22 02:09:06;;;;;;;21.50;13.45;;;;;;;;;;5029218;28;20030;-68
2022/11/22 02:11:32;;;;;;;23.48;14.52;;;;;;;;;;5005817;28;20144;-67
2022/11/22 02:13:58;;;;;;;21.65;12.75;;;;;;;;;;5037372;28;20124;-67
2022/11/22 02:16:24;;;;;;;24.13;13.43;;;;;;;;;;5025034;28;20037;-68
2022/11/22 02:18:50;;;;;;;24.20;13.43;;;;;;;;;;5014791;28;20022;-67
2022/11/22 02:21:16;;;;;;;20.85;12.32;;;;;;;;;;5030513;28;20053;-68
2022/11/22 02:23:50;;;;;;;22.25;13.02;;;;;;;;;;5028611;28;20101;-68
2022/11/22 02:26:16;;;;;;;22.10;13.18;;;;;;;;;;5030436;28;20089;-67
2022/11/22 02:28:42;;;;;;;21.60;13.18;;;;;;;;;;5028741;28;20532;-67
2022/11/22 02:31:08;;;;;;;20.80;13.07;;;;;;;;;;5028485;28;20459;-68
2022/11/22 02:33:34;;;;;;;26.17;13.50;;;;;;;;;;5028898;28;20040;-67
2022/11/22 02:36:00;;;;;;;25.40;13.48;;;;;;;;;;5030175;28;20022;-66
2022/11/22 02:38:30;;;;;;;23.17;14.75;;;;;;;;;;5032428;28;20022;-67
2022/11/22 02:40:58;;;;;;;21.25;13.88;;;;;;;;;;5022833;28;20033;-67
2022/11/22 02:43:32;;;;;;;22.80;13.38;;;;;;;;;;5014030;28;20041;-68
2022/11/22 02:46:05;;;;;;;20.63;13.57;;;;;;;;;;5029154;28;20058;-68
2022/11/22 02:48:31;;;;;;;21.77;13.75;;;;;;;;;;5017421;28;20042;-68
2022/11/22 02:50:58;;;;;;;23.42;13.38;;;;;;;;;;5013897;28;20482;-67
2022/11/22 02:53:24;;;;;;;22.20;13.95;;;;;;;;;;5017935;28;20032;-67
2022/11/22 02:55:50;;;;;;;23.25;14.13;;;;;;;;;;5029449;28;20026;-67
2022/11/22 02:58:16;;;;;;;23.40;13.85;;;;;;;;;;5014016;28;20030;-68
2022/11/22 03:00:42;;;;;;;21.10;12.45;;;;;;;;;;5018012;28;20088;-68
2022/11/22 03:03:08;;;;;;;19.63;12.02;;;;;;;;;;5013564;28;20057;-68
2022/11/22 03:05:34;;;;;;;21.65;12.98;;;;;;;;;;5013849;28;20434;-67
2022/11/22 03:08:00;;;;;;;18.85;12.15;;;;;;;;;;5013685;28;20084;-68
2022/11/22 03:10:26;;;;;;;20.95;12.90;;;;;;;;;;5012265;28;20057;-67
2022/11/22 03:12:52;;;;;;;18.83;12.63;;;;;;;;;;5013399;28;20117;-68
2022/11/22 03:15:18;;;;;;;20.77;12.60;;;;;;;;;;5016960;28;20440;-67
2022/11/22 03:17:43;;;;;;;22.38;13.05;;;;;;;;;;5032126;28;20021;-68
2022/11/22 03:20:09;;;;;;;19.65;12.13;;;;;;;;;;5033160;28;20029;-68
2022/11/22 03:22:35;;;;;;;18.67;12.52;;;;;;;;;;5026435;28;20108;-68
2022/11/22 03:25:01;;;;;;;21.25;12.68;;;;;;;;;;5012957;28;20030;-70
2022/11/22 03:27:27;;;;;;;21.23;12.57;;;;;;;;;;5026742;28;20378;-67
2022/11/22 03:29:53;;;;;;;20.98;12.57;;;;;;;;;;5029550;28;20038;-67
2022/11/22 03:32:19;;;;;;;20.85;11.68;;;;;;;;;;5012040;28;20034;-68
2022/11/22 03:34:45;;;;;;;17.73;11.18;;;;;;;;;;5013023;28;20053;-67
2022/11/22 03:37:11;;;;;;;18.80;11.23;;;;;;;;;;5012259;28;20036;-66
2022/11/22 03:39:37;;;;;;;20.75;11.18;;;;;;;;;;5012999;28;20068;-67
2022/11/22 03:42:03;;;;;;;19.00;11.40;;;;;;;;;;5031379;28;20068;-67
2022/11/22 03:44:29;;;;;;;19.05;12.45;;;;;;;;;;5019260;28;20021;-67
2022/11/22 03:46:55;;;;;;;17.60;11.18;;;;;;;;;;5012992;28;20455;-66
2022/11/22 03:49:21;;;;;;;17.73;11.48;;;;;;;;;;5010852;28;20026;-68
2022/11/22 03:51:47;;;;;;;18.98;12.20;;;;;;;;;;5015984;28;20103;-68
2022/11/22 03:54:13;;;;;;;17.98;11.98;;;;;;;;;;5032030;28;20033;-68
2022/11/22 03:56:39;;;;;;;20.02;11.13;;;;;;;;;;5032646;28;20108;-68
2022/11/22 03:59:05;;;;;;;18.08;11.15;;;;;;;;;;5032643;28;20060;-68
2022/11/22 04:01:31;;;;;;;18.55;10.60;;;;;;;;;;5017114;28;20057;-68
2022/11/22 04:03:57;;;;;;;18.17;11.68;;;;;;;;;;5012534;28;20037;-68
2022/11/22 04:06:23;;;;;;;18.65;11.45;;;;;;;;;;5011216;28;20503;-67
2022/11/22 04:08:49;;;;;;;17.88;11.90;;;;;;;;;;5012580;28;20030;-67
2022/11/22 04:11:15;;;;;;;18.08;11.50;;;;;;;;;;5011894;28;20033;-67
2022/11/22 04:16:25;;;;;;;21.00;11.98;;;;;;;;;;5021162;28;20126;-67
2022/11/22 04:18:51;;;;;;;18.83;11.77;;;;;;;;;;5029080;28;20035;-67
2022/11/22 04:21:32;;;;;;;18.08;11.77;;;;;;;;;;5014953;28;20018;-68
2022/11/22 04:26:43;;;;;;;20.83;11.77;;;;;;;;;;5012473;28;20145;-67
2022/11/22 04:29:09;;;;;;;18.83;11.43;;;;;;;;;;5011011;28;20022;-67
2022/11/22 04:34:20;;;;;;;17.77;10.63;;;;;;;;;;5011894;28;20049;-68
2022/11/22 04:36:45;;;;;;;19.20;11.02;;;;;;;;;;5013778;28;20022;-67
2022/11/22 04:39:11;;;;;;;18.77;10.07;;;;;;;;;;5012400;28;20045;-67
2022/11/22 04:41:37;;;;;;;21.35;10.85;;;;;;;;;;5011802;28;20393;-67
2022/11/22 04:46:48;;;;;;;19.35;11.40;;;;;;;;;;5019175;28;20057;-67
2022/11/22 04:49:14;;;;;;;18.02;10.90;;;;;;;;;;5010779;28;20034;-67
2022/11/22 04:54:25;;;;;;;21.55;10.50;;;;;;;;;;5011947;28;20092;-66
2022/11/22 04:56:50;;;;;;;19.65;11.13;;;;;;;;;;5011811;28;20113;-67
2022/11/22 04:59:16;;;;;;;21.50;12.15;;;;;;;;;;5011538;28;20042;-70
2022/11/22 05:01:42;;;;;;;20.38;10.82;;;;;;;;;;5012376;28;20552;-67
2022/11/22 05:04:08;;;;;;;21.13;10.57;;;;;;;;;;5011632;28;20041;-67
2022/11/22 05:06:35;;;;;;;21.15;11.27;;;;;;;;;;5010745;28;20057;-66
2022/11/22 05:09:01;;;;;;;24.45;11.32;;;;;;;;;;5012135;28;20026;-66
2022/11/22 05:11:27;;;;;;;22.35;11.57;;;;;;;;;;5011778;28;20028;-66
2022/11/22 05:13:53;;;;;;;20.23;11.13;;;;;;;;;;5011591;28;20390;-65
2022/11/22 05:16:19;;;;;;;21.38;10.50;;;;;;;;;;5012465;28;20021;-66
2022/11/22 05:18:57;;;;;;;24.52;12.00;;;;;;;;;;5009935;28;20022;-67
2022/11/22 05:21:24;;;;;;;20.40;11.48;;;;;;;;;;5011246;28;20413;-65
2022/11/22 05:23:53;;;;;;;21.88;11.85;;;;;;;;;;5009763;28;20092;-67
2022/11/22 05:26:19;;;;;;;19.55;11.15;;;;;;;;;;5011530;28;20501;-66
2022/11/22 05:28:45;;;;;;;21.55;11.30;;;;;;;;;;5009774;28;20026;-68
2022/11/22 05:31:12;;;;;;;22.27;11.90;;;;;;;;;;5011162;28;20458;-67
2022/11/22 05:33:39;;;;;;;21.45;10.95;;;;;;;;;;5010953;28;20163;-68
2022/11/22 05:36:05;;;;;;;22.15;11.30;;;;;;;;;;5012731;28;20033;-67
2022/11/22 05:38:34;;;;;;;20.38;11.18;;;;;;;;;;5030465;28;20040;-68
2022/11/22 05:41:00;;;;;;;21.35;11.27;;;;;;;;;;5032810;23;20045;-63
2022/11/22 05:43:27;;;;;;;25.25;12.20;;;;;;;;;;4991551;28;20034;-64
2022/11/22 05:45:53;;;;;;;24.38;12.07;;;;;;;;;;4973314;28;20030;-64
2022/11/22 05:48:19;;;;;;;24.42;11.73;;;;;;;;;;4975792;28;20037;-64
2022/11/22 05:50:45;;;;;;;21.58;11.93;;;;;;;;;;4993067;28;20023;-65
2022/11/22 05:53:11;;;;;;;23.45;11.93;;;;;;;;;;4992281;28;20030;-66
2022/11/22 05:55:37;;;;;;;24.33;11.48;;;;;;;;;;5002780;28;20031;-64
2022/11/22 05:58:03;;;;;;;20.30;11.43;;;;;;;;;;5000699;28;20105;-64
2022/11/22 06:00:29;;;;;;;20.45;10.75;;;;;;;;;;5007548;28;20390;-64
2022/11/22 06:03:02;;;;;;;24.02;12.35;;;;;;;;;;5007818;28;20574;-65
2022/11/22 06:05:28;;;;;;;21.38;12.20;;;;;;;;;;4995707;28;20081;-65
2022/11/22 06:08:00;;;;;;;23.98;12.65;;;;;;;;;;4973336;28;20484;-65
2022/11/22 06:10:26;;;;;;;23.92;12.25;;;;;;;;;;4973282;28;20034;-64
2022/11/22 06:12:53;;;;;;;21.45;12.80;;;;;;;;;;4974562;28;20034;-65
2022/11/22 06:15:19;;;;;;;21.83;12.50;;;;;;;;;;4983740;28;20059;-65
2022/11/22 06:17:45;;;;;;;21.77;12.00;;;;;;;;;;4991855;28;20074;-66
2022/11/22 06:20:11;;;;;;;23.63;12.30;;;;;;;;;;4976646;28;20037;-65
2022/11/22 06:22:37;;;;;;;23.30;11.98;;;;;;;;;;4976928;28;20058;-65
2022/11/22 06:25:03;;;;;;;25.23;11.88;;;;;;;;;;4990857;28;20042;-63
2022/11/22 06:27:29;;;;;;;23.42;11.40;;;;;;;;;;4976487;28;20398;-64
2022/11/22 06:29:55;;;;;;;23.65;11.82;;;;;;;;;;4977153;28;20042;-64
2022/11/22 06:32:21;;;;;;;25.35;14.75;;;;;;;;;;4991290;28;20031;-65
2022/11/22 06:34:47;;;;;;;20.00;11.60;;;;;;;;;;4990688;28;20034;-65
2022/11/22 06:37:16;;;;;;;26.77;12.85;;;;;;;;;;4976150;28;20407;-65
2022/11/22 06:39:42;;;;;;;26.50;13.10;;;;;;;;;;4976108;28;20037;-64
2022/11/22 06:42:08;;;;;;;24.27;12.60;;;;;;;;;;4991070;28;20038;-65
2022/11/22 06:44:34;;;;;;;25.73;13.05;;;;;;;;;;4991554;28;20023;-65
2022/11/22 06:47:00;;;;;;;23.25;12.15;;;;;;;;;;4974491;28;20031;-62
2022/11/22 06:49:26;;;;;;;22.48;12.57;;;;;;;;;;4975508;28;20078;-63
2022/11/22 06:51:52;;;;;;;20.98;11.80;;;;;;;;;;4994299;28;20046;-64
2022/11/22 06:54:18;;;;;;;25.17;12.88;;;;;;;;;;4980343;28;20026;-64
2022/11/22 06:56:44;;;;;;;33.42;13.73;;;;;;;;;;4995866;28;20031;-65
2022/11/22 06:59:10;;;;;;;18.10;11.27;;;;;;;;;;4978676;28;20046;-64
2022/11/22 07:01:37;;;;;;;21.75;11.93;;;;;;;;;;4993691;28;20105;-66
2022/11/22 07:04:03;;;;;;;21.30;11.95;;;;;;;;;;4977098;28;20031;-63
2022/11/22 07:06:30;;;;;;;23.58;12.32;;;;;;;;;;4991207;28;20031;-64
2022/11/22 07:08:56;;;;;;;25.92;12.13;;;;;;;;;;4975394;28;20125;-63
2022/11/22 07:11:24;;;;;;;21.75;11.23;;;;;;;;;;4975928;28;20031;-64
2022/11/22 07:13:50;;;;;;;24.42;12.82;;;;;;;;;;4975505;28;20026;-63
2022/11/22 07:16:17;;;;;;;20.30;11.98;;;;;;;;;;4987307;28;20162;-64
2022/11/22 07:18:43;;;;;;;29.88;11.80;;;;;;;;;;4994407;28;20034;-64
2022/11/22 07:21:10;;;;;;;25.27;12.15;;;;;;;;;;4994430;28;20025;-64
2022/11/22 07:23:37;;;;;;;25.38;12.07;;;;;;;;;;4994060;28;20034;-64
2022/11/22 07:26:03;;;;;;;24.75;12.18;;;;;;;;;;5002563;28;20427;-63
2022/11/22 07:28:29;;;;;;;23.83;12.40;;;;;;;;;;4975636;28;20034;-63
2022/11/22 07:30:59;;;;;;;21.67;11.77;;;;;;;;;;4975185;28;20031;-63
2022/11/22 07:33:25;;;;;;;26.20;11.77;;;;;;;;;;4988179;28;20031;-63
2022/11/22 07:35:51;;;;;;;21.38;11.90;;;;;;;;;;4989985;28;20023;-63
2022/11/22 07:38:17;;;;;;;24.70;11.43;;;;;;;;;;4990205;28;20101;-62
2022/11/22 07:40:44;;;;;;;20.15;10.50;;;;;;;;;;4974878;28;20034;-62
2022/11/22 07:43:10;;;;;;;24.73;10.40;;;;;;;;;;4989645;28;20540;-63
2022/11/22 07:45:36;;;;;;;20.90;10.73;;;;;;;;;;4989959;28;20038;-62
2022/11/22 07:48:02;;;;;;;22.98;11.30;;;;;;;;;;4975291;28;20427;-64
2022/11/22 07:50:28;;;;;;;25.25;10.90;;;;;;;;;;4976926;28;20027;-65
2022/11/22 07:52:55;;;;;;;23.80;11.40;;;;;;;;;;5009144;28;20037;-63
2022/11/22 07:55:21;;;;;;;19.02;10.75;;;;;;;;;;4989983;28;20058;-64
2022/11/22 07:57:47;;;;;;;19.05;10.95;;;;;;;;;;4974574;28;20438;-65
2022/11/22 08:00:13;;;;;;;22.90;10.70;;;;;;;;;;4983874;28;20054;-65
2022/11/22 08:02:39;;;;;;;22.33;11.23;;;;;;;;;;4986203;28;20031;-63
2022/11/22 08:05:06;;;;;;;22.25;10.95;;;;;;;;;;4974561;28;20078;-65
2022/11/22 08:07:32;;;;;;;19.77;10.95;;;;;;;;;;4977910;28;20034;-65
2022/11/22 08:09:58;;;;;;;26.27;12.60;;;;;;;;;;4989767;28;20026;-65
2022/11/22 08:12:24;;;;;;;24.20;9.93;;;;;;;;;;4988558;28;20045;-65
2022/11/22 08:14:50;;;;;;;21.15;11.23;;;;;;;;;;4982870;28;20024;-63
2022/11/22 08:17:16;;;;;;;21.67;11.43;;;;;;;;;;4954898;28;20038;-65
2022/11/22 08:19:42;;;;;;;25.38;11.00;;;;;;;;;;4954646;28;20028;-65
2022/11/22 08:22:08;;;;;;;21.85;9.60;;;;;;;;;;4972301;28;20495;-66
2022/11/22 08:24:34;;;;;;;19.92;9.95;;;;;;;;;;4973815;28;20368;-65
2022/11/22 08:27:01;;;;;;;19.60;9.98;;;;;;;;;;4988938;28;20141;-66
2022/11/22 08:29:28;;;;;;;21.33;10.25;;;;;;;;;;4974110;28;20027;-68
2022/11/22 08:31:54;;;;;;;20.13;10.45;;;;;;;;;;4973870;28;20098;-65
2022/11/22 08:34:20;;;;;;;23.00;9.50;;;;;;;;;;4988519;28;20078;-66
2022/11/22 08:36:46;;;;;;;20.85;10.98;;;;;;;;;;4988041;28;20042;-65
2022/11/22 08:39:12;;;;;;;29.25;11.57;;;;;;;;;;4989002;28;20033;-65
2022/11/22 08:41:38;;;;;;;20.70;10.02;;;;;;;;;;4988521;28;20027;-64
2022/11/22 08:44:04;;;;;;;20.23;10.10;;;;;;;;;;4988558;28;20034;-65
2022/11/22 08:46:30;;;;;;;21.10;10.63;;;;;;;;;;4979658;28;20027;-64
2022/11/22 08:48:56;;;;;;;20.20;9.10;;;;;;;;;;4969216;28;20027;-63
2022/11/22 08:51:23;;;;;;;20.05;10.18;;;;;;;;;;4972302;28;20395;-64
2022/11/22 08:53:49;;;;;;;22.67;9.80;;;;;;;;;;4974487;28;20038;-65
2022/11/22 08:56:15;;;;;;;20.38;9.52;;;;;;;;;;4973434;28;20101;-65
2022/11/22 08:58:42;;;;;;;24.27;8.98;;;;;;;;;;4973821;28;20023;-65
2022/11/22 09:01:08;;;;;;;17.88;8.80;;;;;;;;;;4988151;28;20526;-64
2022/11/22 09:03:34;;;;;;;19.05;8.93;;;;;;;;;;4972973;28;20034;-64
2022/11/22 09:06:05;;;;;;;19.42;8.90;;;;;;;;;;4988761;28;20034;-64
2022/11/22 09:08:32;;;;;;;19.33;9.38;;;;;;;;;;4973603;28;20042;-65
2022/11/22 09:11:05;;;;;;;19.25;8.57;;;;;;;;;;4973927;28;20027;-65
2022/11/22 09:13:31;;;;;;;20.08;9.07;;;;;;;;;;4973498;28;20027;-65
2022/11/22 09:16:06;;;;;;;20.90;10.27;;;;;;;;;;4988627;28;20054;-65
2022/11/22 09:18:32;;;;;;;22.75;9.57;;;;;;;;;;4973971;28;20062;-65
2022/11/22 09:20:58;;;;;;;20.02;9.35;;;;;;;;;;4987791;28;20090;-65
2022/11/22 09:23:25;;;;;;;16.75;8.45;;;;;;;;;;4986528;28;20041;-64
2022/11/22 09:25:57;;;;;;;22.67;8.57;;;;;;;;;;4971893;28;20089;-63
2022/11/22 09:28:24;;;;;;;18.42;8.70;;;;;;;;;;4972297;28;20061;-63
2022/11/22 09:30:49;;;;;;;19.52;8.48;;;;;;;;;;4986844;28;20065;-64
2022/11/22 09:33:16;;;;;;;18.45;8.70;;;;;;;;;;4987277;28;20404;-64
2022/11/22 09:35:42;;;;;;;18.27;9.57;;;;;;;;;;4972258;28;20396;-63
2022/11/22 09:38:08;;;;;;;23.20;8.95;;;;;;;;;;4973949;28;20415;-64
2022/11/22 09:40:35;;;;;;;21.27;8.55;;;;;;;;;;4973679;28;20026;-65
2022/11/22 09:43:04;;;;;;;21.03;9.50;;;;;;;;;;4988537;28;20026;-62
2022/11/22 09:45:40;;;;;;;22.98;9.13;;;;;;;;;;4992856;28;20351;-64
2022/11/22 09:48:06;;;;;;;18.10;8.98;;;;;;;;;;4991823;28;20038;-64
2022/11/22 09:50:50;;;;;;;20.67;8.90;;;;;;;;;;4992366;28;20053;-64
2022/11/22 09:53:19;;;;;;;18.40;9.20;;;;;;;;;;4981591;28;20031;-64
2022/11/22 09:55:47;;;;;;;19.00;9.30;;;;;;;;;;4973267;28;20054;-64
2022/11/22 09:58:27;;;;;;;20.13;8.80;;;;;;;;;;4972987;28;20505;-65
2022/11/22 10:00:56;;;;;;;17.10;8.23;;;;;;;;;;4973468;28;20031;-64
2022/11/22 10:03:28;;;;;;;19.88;8.57;;;;;;;;;;4973564;28;20026;-63
2022/11/22 10:05:56;;;;;;;16.17;8.60;;;;;;;;;;4988844;28;20440;-64
2022/11/22 10:08:25;;;;;;;22.10;8.63;;;;;;;;;;4973240;28;20034;-65
2022/11/22 10:10:53;;;;;;;18.65;8.70;;;;;;;;;;4973378;28;20031;-64
2022/11/22 10:13:25;;;;;;;16.83;8.43;;;;;;;;;;4988666;28;20023;-61
2022/11/22 10:16:00;;;;;;;20.45;9.00;;;;;;;;;;4974298;28;20102;-64
2022/11/22 10:18:41;;;;;;;24.80;8.80;;;;;;;;;;4973606;28;20027;-63
2022/11/22 10:21:13;;;;;;;19.90;8.52;;;;;;;;;;4972846;28;20049;-65
2022/11/22 10:23:43;;;;;;;18.23;8.40;;;;;;;;;;4972675;28;20027;-64
2022/11/22 10:26:25;;;;;;;25.23;9.27;;;;;;;;;;4987752;28;20041;-64
2022/11/22 10:29:00;;;;;;;17.60;8.55;;;;;;;;;;4972753;28;20035;-64
2022/11/22 10:31:45;;;;;;;17.27;8.20;;;;;;;;;;4973151;28;20174;-65
2022/11/22 10:34:14;;;;;;;20.70;8.80;;;;;;;;;;4624868;28;10000690;-64
2022/11/22 10:36:46;;;;;;;16.75;8.65;;;;;;;;;;4970653;28;20053;-66
2022/11/22 10:39:19;;;;;;;18.23;9.55;;;;;;;;;;4970398;28;20566;-66
2022/11/22 10:41:57;;;;;;;23.98;10.10;;;;;;;;;;4985890;28;20129;-65
2022/11/22 10:44:28;;;;;;;17.38;9.02;;;;;;;;;;4970074;28;20023;-64
2022/11/22 10:47:00;;;;;;;20.52;10.07;;;;;;;;;;4986075;28;20099;-66
2022/11/22 10:49:26;;;;;;;16.33;9.52;;;;;;;;;;4970166;28;20138;-66
2022/11/22 10:52:16;;;;;;;20.38;9.70;;;;;;;;;;4970295;28;20027;-64
2022/11/22 10:54:49;;;;;;;17.13;9.65;;;;;;;;;;4960710;28;20491;-67
2022/11/22 10:57:15;;;;;;;19.25;10.25;;;;;;;;;;4985722;28;20096;-63
2022/11/22 10:59:53;;;;;;;18.75;10.55;;;;;;;;;;4972579;28;20065;-64
2022/11/22 11:02:43;;;;;;;18.60;9.55;;;;;;;;;;4973679;28;20085;-63
2022/11/22 11:05:11;;;;;;;16.80;10.20;;;;;;;;;;4973242;28;20027;-63
2022/11/22 11:07:46;;;;;;;21.10;10.38;;;;;;;;;;4975671;28;20022;-64
2022/11/22 11:10:35;;;;;;;17.55;10.07;;;;;;;;;;4991276;28;20034;-65
2022/11/22 11:13:04;;;;;;;20.23;10.23;;;;;;;;;;4992513;28;20092;-64
2022/11/22 11:15:44;;;;;;;18.20;10.85;;;;;;;;;;4992176;28;20022;-65
2022/11/22 11:18:42;;;;;;;18.73;10.10;;;;;;;;;;4974075;28;20031;-64
2022/11/22 11:21:12;;;;;;;20.13;9.75;;;;;;;;;;4950529;28;20666;-64
2022/11/22 11:23:38;;;;;;;18.27;9.43;;;;;;;;;;4988828;28;20093;-64
2022/11/22 11:26:24;;;;;;;18.98;10.23;;;;;;;;;;4973833;28;20058;-64
2022/11/22 11:28:51;;;;;;;16.92;9.82;;;;;;;;;;4968656;28;20035;-63
2022/11/22 11:31:17;;;;;;;17.75;8.93;;;;;;;;;;4991023;28;20062;-65
2022/11/22 11:33:45;;;;;;;19.02;9.15;;;;;;;;;;4977860;28;20462;-64
2022/11/22 11:36:19;;;;;;;21.45;10.25;;;;;;;;;;4976397;28;20023;-62
2022/11/22 11:38:47;;;;;;;17.88;8.98;;;;;;;;;;4976123;28;20027;-65
2022/11/22 11:41:23;;;;;;;15.80;8.60;;;;;;;;;;5012803;23;20053;-67
2022/11/22 11:43:49;;;;;;;16.67;8.40;;;;;;;;;;5032149;28;20040;-65
2022/11/22 11:46:20;;;;;;;16.80;8.60;;;;;;;;;;5032619;28;20105;-65
2022/11/22 11:48:47;;;;;;;17.63;8.98;;;;;;;;;;5032057;28;20026;-65
2022/11/22 11:51:15;;;;;;;17.58;8.80;;;;;;;;;;4676416;28;10000030;-65
2022/11/22 11:53:48;;;;;;;20.05;8.50;;;;;;;;;;4681971;28;10000352;-66
2022/11/22 11:56:21;;;;;;;17.45;8.65;;;;;;;;;;5028772;28;20022;-66
2022/11/22 11:58:54;;;;;;;18.35;9.00;;;;;;;;;;5030767;28;20041;-66
2022/11/22 12:01:21;;;;;;;16.95;8.93;;;;;;;;;;4679939;28;10000558;-66
2022/11/22 12:03:58;;;;;;;16.75;9.00;;;;;;;;;;5029491;28;20094;-66
2022/11/22 12:06:28;;;;;;;17.10;8.60;;;;;;;;;;5029725;28;20037;-66
2022/11/22 12:08:55;;;;;;;17.73;9.32;;;;;;;;;;5028928;28;20025;-66
2022/11/22 12:11:26;;;;;;;20.53;9.30;;;;;;;;;;4682631;28;10000302;-66
2022/11/22 12:13:57;;;;;;;18.55;9.52;;;;;;;;;;5028780;28;20021;-65
2022/11/22 12:16:29;;;;;;;17.63;8.73;;;;;;;;;;5027180;28;20033;-67
2022/11/22 12:18:57;;;;;;;17.50;8.82;;;;;;;;;;5028992;28;20557;-66
2022/11/22 12:21:38;;;;;;;16.65;8.75;;;;;;;;;;5017505;28;20114;-66
2022/11/22 12:24:04;;;;;;;18.95;10.27;;;;;;;;;;5019055;28;20433;-66
2022/11/22 12:26:30;;;;;;;19.27;9.43;;;;;;;;;;5010365;28;20034;-66
2022/11/22 12:28:57;;;;;;;19.05;10.52;;;;;;;;;;5010258;28;20045;-65
2022/11/22 12:31:42;;;;;;;16.92;8.63;;;;;;;;;;5009028;28;20486;-64
2022/11/22 12:34:22;;;;;;;19.40;9.05;;;;;;;;;;5021328;28;20022;-66
2022/11/22 12:37:00;;;;;;;16.05;8.82;;;;;;;;;;5029972;28;20017;-66
2022/11/22 12:39:27;;;;;;;17.25;9.43;;;;;;;;;;5031364;28;20033;-66
2022/11/22 12:41:56;;;;;;;17.67;9.25;;;;;;;;;;5030850;28;20113;-66
2022/11/22 12:44:23;;;;;;;17.88;8.75;;;;;;;;;;4683710;28;9999610;-66
2022/11/22 12:46:51;;;;;;;18.95;8.90;;;;;;;;;;5027147;28;20049;-66
2022/11/22 12:49:21;;;;;;;16.83;8.70;;;;;;;;;;5009109;28;20026;-67
2022/11/22 12:51:53;;;;;;;20.67;10.02;;;;;;;;;;5008587;28;20478;-67
2022/11/22 12:54:26;;;;;;;17.85;8.90;;;;;;;;;;5008320;28;20037;-67
2022/11/22 12:56:58;;;;;;;17.13;8.88;;;;;;;;;;5021800;28;20562;-69
2022/11/22 12:59:24;;;;;;;20.88;9.30;;;;;;;;;;5028684;28;20502;-66
2022/11/22 13:02:10;;;;;;;17.30;8.77;;;;;;;;;;5028437;28;20041;-67
2022/11/22 13:04:42;;;;;;;18.10;9.38;;;;;;;;;;5028165;28;20478;-66
2022/11/22 13:07:15;;;;;;;17.63;8.90;;;;;;;;;;5029237;28;20478;-67
2022/11/22 13:09:45;;;;;;;16.08;9.73;;;;;;;;;;5027847;28;20025;-68
2022/11/22 13:12:13;;;;;;;15.77;9.68;;;;;;;;;;5027868;28;20026;-68
2022/11/22 13:14:42;;;;;;;14.93;8.93;;;;;;;;;;5027657;28;20017;-68
2022/11/22 13:17:08;;;;;;;17.00;8.95;;;;;;;;;;5028350;28;20021;-68
2022/11/22 13:19:53;;;;;;;15.85;8.80;;;;;;;;;;5028187;28;20104;-67
2022/11/22 13:22:25;;;;;;;18.48;8.85;;;;;;;;;;5028226;28;20029;-67
2022/11/22 13:25:10;;;;;;;15.48;9.00;;;;;;;;;;5027983;28;20029;-68
2022/11/22 13:27:43;;;;;;;17.20;9.00;;;;;;;;;;5026841;28;20021;-67
2022/11/22 13:30:18;;;;;;;17.55;9.68;;;;;;;;;;5028695;28;20018;-72
2022/11/22 13:32:46;;;;;;;15.32;8.93;;;;;;;;;;4686979;28;10000246;-69
2022/11/22 13:35:12;;;;;;;18.05;9.02;;;;;;;;;;5031103;28;20120;-68
2022/11/22 13:37:41;;;;;;;17.85;9.77;;;;;;;;;;5029104;28;20217;-69
2022/11/22 13:40:07;;;;;;;;;;;;;;;;;;5029058;28;20104;-67
2022/11/22 13:42:33;;;;;;;16.60;8.95;;;;;;;;;;5027391;28;20335;-67
2022/11/22 13:44:59;;;;;;;17.05;8.50;;;;;;;;;;5028191;28;20196;-67
2022/11/22 13:47:25;;;;;;;15.98;9.32;;;;;;;;;;5028370;28;20038;-67
2022/11/22 13:49:52;;;;;;;15.20;8.70;;;;;;;;;;5028483;28;20045;-67
2022/11/22 13:52:18;;;;;;;15.40;8.98;;;;;;;;;;4680798;28;9999807;-67
2022/11/22 13:54:47;;;;;;;17.38;8.57;;;;;;;;;;5029019;28;20521;-68
2022/11/22 13:57:33;;;;;;;19.73;8.90;;;;;;;;;;5028880;28;20018;-67
2022/11/22 14:00:15;;;;;;;17.58;8.93;;;;;;;;;;5030448;28;20025;-66
2022/11/22 14:03:07;;;;;;;16.38;8.63;;;;;;;;;;5028756;28;20033;-67
2022/11/22 14:05:33;;;;;;;17.33;8.63;;;;;;;;;;5007488;28;20121;-67
2022/11/22 14:08:00;;;;;;;18.40;9.02;;;;;;;;;;5029804;28;20049;-68
2022/11/22 14:10:45;;;;;;;17.83;9.48;;;;;;;;;;5007605;28;20072;-68
2022/11/22 14:13:26;;;;;;;14.45;8.20;;;;;;;;;;5009984;28;20050;-68
2022/11/22 14:16:04;;;;;;;15.18;9.13;;;;;;;;;;5010315;28;20034;-68
2022/11/22 14:18:40;;;;;;;19.35;8.60;;;;;;;;;;5010275;28;20022;-67
2022/11/22 14:21:11;;;;;;;15.23;8.68;;;;;;;;;;5010210;28;20757;-67
2022/11/22 14:23:56;;;;;;;16.55;8.77;;;;;;;;;;5009864;28;20042;-67
2022/11/22 14:26:37;;;;;;;14.63;8.15;;;;;;;;;;5008889;28;20040;-68
2022/11/22 14:29:10;;;;;;;22.13;9.00;;;;;;;;;;5009922;28;20042;-68
2022/11/22 14:31:36;;;;;;;15.75;8.13;;;;;;;;;;5010079;28;20026;-65
2022/11/22 14:34:21;;;;;;;15.77;8.32;;;;;;;;;;5020743;28;20025;-67
2022/11/22 14:37:06;;;;;;;15.90;8.80;;;;;;;;;;5033646;28;20075;-67
2022/11/22 14:39:44;;;;;;;20.25;9.43;;;;;;;;;;5022214;28;20026;-65
2022/11/22 14:42:29;;;;;;;20.73;10.63;;;;;;;;;;5030848;28;20033;-67
2022/11/22 14:44:55;;;;;;;17.33;8.32;;;;;;;;;;5033251;28;20030;-68